General Aviation Weather

Text Reports

Enter one or more of the following location identifiers separated by a space:

Zip Code, Four-Character ICAO or Three-Character IATA airport codes.

METAR - Aviation Routine Weather Report
KELN - Ellensburg, Washington
Updated at 10:17 AM GMT on January 26, 2015 (2:17 AM PST):
SPECI KELN 261017Z AUTO 00000KT 3/4SM BR VV002 02/00 A3010 RMK AO2 T00170000
TAF - Terminal Area Forecast
KELN - Ellensburg, Washington
Updated at 10:17 AM GMT on January 26, 2015 (2:17 AM PST):
No TAF is currently available for this location.
Decoded:
No decoded TAF is available.
PIREP - Pilot Weather Report
KELN - Ellensburg, Washington
Updated at 10:17 AM GMT on January 26, 2015 (2:17 AM PST):
No PIREP is currently available for this location.
AIRMET - Airmens Meteorological Information
KELN - Ellensburg, Washington
Updated at 10:17 AM GMT on January 26, 2015 (2:17 AM PST):
No AIRMET is currently available for this location.
SIGMET - Significant Meteorological Information
KELN - Ellensburg, Washington
Updated at 10:17 AM GMT on January 26, 2015 (2:17 AM PST):
No SIGMET is currently available for this location.
NOTAM - Notice to Airmen
KELN - Ellensburg, Washington
Updated at 10:17 AM GMT on January 26, 2015 (2:17 AM PST):
No NOTAM is currently available for this location.
Forecast Area
KELN - Ellensburg, Washington
Updated at 10:17 AM GMT on January 26, 2015 (2:17 AM PST):
No NOTAM is currently available for this location.
Aviation Weather Maps